Time;durP1;ratioP1;P1;durP2;ratioP2;P2;SDS_P1;SDS_P2;PMS_P1;PMS_P2;Temp;Humidity;BMP_temperature;BMP_pressure;BME280_temperature;BME280_humidity;BME280_pressure;Samples;Min_cycle;Max_cycle;Signal;HPM_P1;HPM_P2
2021/08/18 00:00:50;;;;;;;13.52;9.57;;;;;;;;;;5055447;28;20497;-58
2021/08/18 00:03:16;;;;;;;13.20;9.02;;;;;;;;;;5056250;28;20083;-59
2021/08/18 00:05:43;;;;;;;14.38;10.18;;;;;;;;;;5055342;28;20025;-59
2021/08/18 00:08:10;;;;;;;11.50;8.07;;;;;;;;;;5055816;28;20091;-58
2021/08/18 00:10:36;;;;;;;10.50;8.07;;;;;;;;;;5055304;28;20025;-59
2021/08/18 00:13:03;;;;;;;15.68;8.95;;;;;;;;;;5055217;28;20033;-59
2021/08/18 00:15:30;;;;;;;14.48;9.27;;;;;;;;;;5054225;28;20451;-59
2021/08/18 00:18:00;;;;;;;14.75;9.25;;;;;;;;;;5054583;28;20029;-59
2021/08/18 00:20:26;;;;;;;12.15;8.57;;;;;;;;;;5055243;28;20471;-58
2021/08/18 00:22:52;;;;;;;15.10;8.35;;;;;;;;;;5054999;28;20028;-59
2021/08/18 00:25:18;;;;;;;11.27;9.13;;;;;;;;;;5054820;28;20049;-58
2021/08/18 00:27:44;;;;;;;13.23;8.13;;;;;;;;;;5054905;28;20029;-59
2021/08/18 00:30:11;;;;;;;10.18;8.20;;;;;;;;;;5055420;28;20048;-58
2021/08/18 00:32:37;;;;;;;15.30;9.15;;;;;;;;;;5055195;28;20025;-59
2021/08/18 00:35:03;;;;;;;13.93;9.80;;;;;;;;;;5054658;28;20470;-58
2021/08/18 00:37:29;;;;;;;15.45;9.55;;;;;;;;;;5054466;28;20028;-59
2021/08/18 00:39:55;;;;;;;16.08;10.15;;;;;;;;;;5054669;28;20029;-59
2021/08/18 00:42:21;;;;;;;15.55;9.82;;;;;;;;;;5055503;28;20021;-59
2021/08/18 00:44:49;;;;;;;13.55;9.18;;;;;;;;;;5054653;28;20423;-59
2021/08/18 00:47:15;;;;;;;13.82;9.25;;;;;;;;;;5054806;28;20029;-59
2021/08/18 00:49:41;;;;;;;15.00;9.90;;;;;;;;;;5054480;28;20032;-59
2021/08/18 00:52:07;;;;;;;17.35;10.52;;;;;;;;;;5054858;28;20033;-59
2021/08/18 00:54:33;;;;;;;15.73;10.45;;;;;;;;;;5054638;28;20040;-59
2021/08/18 00:57:01;;;;;;;16.17;10.52;;;;;;;;;;5054317;28;20082;-59
2021/08/18 00:59:27;;;;;;;14.68;9.65;;;;;;;;;;5054390;28;20033;-59
2021/08/18 01:01:53;;;;;;;12.93;9.75;;;;;;;;;;5054585;28;20090;-58
2021/08/18 01:04:19;;;;;;;14.05;9.63;;;;;;;;;;5054562;28;20123;-58
2021/08/18 01:06:46;;;;;;;17.52;8.57;;;;;;;;;;5054160;28;20470;-59
2021/08/18 01:09:16;;;;;;;15.10;9.15;;;;;;;;;;5054118;28;20104;-59
2021/08/18 01:11:43;;;;;;;15.45;11.88;;;;;;;;;;5054649;28;20041;-59
2021/08/18 01:14:10;;;;;;;16.83;10.52;;;;;;;;;;5054039;28;20033;-58
2021/08/18 01:16:37;;;;;;;17.55;10.55;;;;;;;;;;5054358;28;20422;-59
2021/08/18 01:19:04;;;;;;;15.65;10.05;;;;;;;;;;5054025;28;20064;-59
2021/08/18 01:21:31;;;;;;;15.60;10.07;;;;;;;;;;5053703;28;20033;-59
2021/08/18 01:23:57;;;;;;;13.07;9.88;;;;;;;;;;5053897;28;20060;-59
2021/08/18 01:26:26;;;;;;;16.02;9.98;;;;;;;;;;5054015;28;20054;-59
2021/08/18 01:28:52;;;;;;;16.10;11.27;;;;;;;;;;5054269;28;20064;-59
2021/08/18 01:31:19;;;;;;;17.88;10.77;;;;;;;;;;5053280;28;20052;-59
2021/08/18 01:33:47;;;;;;;18.23;11.23;;;;;;;;;;5053794;28;20040;-59
2021/08/18 01:36:13;;;;;;;15.23;10.25;;;;;;;;;;5054298;28;20370;-59
2021/08/18 01:38:39;;;;;;;15.57;10.68;;;;;;;;;;5053805;28;20052;-59
2021/08/18 01:41:06;;;;;;;18.83;10.93;;;;;;;;;;5053806;28;20020;-59
2021/08/18 01:43:32;;;;;;;16.25;11.20;;;;;;;;;;5054277;28;20056;-59
2021/08/18 01:45:58;;;;;;;18.25;11.35;;;;;;;;;;5053990;28;20028;-59
2021/08/18 01:48:25;;;;;;;15.20;10.13;;;;;;;;;;5054181;28;20106;-59
2021/08/18 01:50:52;;;;;;;15.70;11.23;;;;;;;;;;5054214;28;20037;-59
2021/08/18 01:53:28;;;;;;;21.42;11.75;;;;;;;;;;5053885;28;20447;-59
2021/08/18 01:55:55;;;;;;;16.35;10.65;;;;;;;;;;5053816;28;20025;-58
2021/08/18 01:58:22;;;;;;;16.67;11.07;;;;;;;;;;5054316;28;20025;-59
2021/08/18 02:00:48;;;;;;;18.08;11.45;;;;;;;;;;5054060;28;20029;-59
2021/08/18 02:03:14;;;;;;;14.73;10.95;;;;;;;;;;5053566;28;20079;-59
2021/08/18 02:05:40;;;;;;;17.20;11.15;;;;;;;;;;5053822;28;20032;-59
2021/08/18 02:08:06;;;;;;;18.23;11.32;;;;;;;;;;5053718;28;20071;-59
2021/08/18 02:10:33;;;;;;;18.33;11.85;;;;;;;;;;5053734;28;20031;-59
2021/08/18 02:13:03;;;;;;;18.77;11.73;;;;;;;;;;5053323;28;20025;-59
2021/08/18 02:15:30;;;;;;;16.55;11.35;;;;;;;;;;5053129;28;20032;-59
2021/08/18 02:17:57;;;;;;;17.38;11.95;;;;;;;;;;5053609;28;20041;-58
2021/08/18 02:20:26;;;;;;;18.35;13.18;;;;;;;;;;5053302;28;20020;-58
2021/08/18 02:22:52;;;;;;;19.25;11.40;;;;;;;;;;5053359;28;20026;-58
2021/08/18 02:25:18;;;;;;;17.88;12.10;;;;;;;;;;5053509;28;20049;-59
2021/08/18 02:27:47;;;;;;;17.08;12.45;;;;;;;;;;5053828;28;20029;-59
2021/08/18 02:30:14;;;;;;;18.17;12.07;;;;;;;;;;5053271;28;20028;-59
2021/08/18 02:32:40;;;;;;;18.58;11.98;;;;;;;;;;5053305;28;20278;-59
2021/08/18 02:35:07;;;;;;;17.48;12.00;;;;;;;;;;5053135;28;20110;-59
2021/08/18 02:37:33;;;;;;;19.48;11.80;;;;;;;;;;5053929;28;20022;-58
2021/08/18 02:39:59;;;;;;;18.42;11.80;;;;;;;;;;5052904;28;20025;-58
2021/08/18 02:42:26;;;;;;;16.88;11.25;;;;;;;;;;5056446;28;20067;-59
2021/08/18 02:44:52;;;;;;;15.57;10.82;;;;;;;;;;5056879;28;20035;-59
2021/08/18 02:47:18;;;;;;;17.40;12.15;;;;;;;;;;5057664;28;20020;-59
2021/08/18 02:49:44;;;;;;;20.13;12.25;;;;;;;;;;5056790;28;20109;-59
2021/08/18 02:52:10;;;;;;;13.68;10.60;;;;;;;;;;5057026;28;20120;-59
2021/08/18 02:54:39;;;;;;;14.88;11.57;;;;;;;;;;5057363;28;20025;-59
2021/08/18 02:57:05;;;;;;;16.38;11.88;;;;;;;;;;5056652;28;20049;-59
2021/08/18 02:59:31;;;;;;;17.48;12.45;;;;;;;;;;5056249;28;20521;-59
2021/08/18 03:02:02;;;;;;;18.25;12.52;;;;;;;;;;5056561;28;20017;-59
2021/08/18 03:04:28;;;;;;;14.00;10.95;;;;;;;;;;5056566;28;20062;-59
2021/08/18 03:06:55;;;;;;;16.83;12.48;;;;;;;;;;5056514;28;20032;-59
2021/08/18 03:09:24;;;;;;;17.55;11.48;;;;;;;;;;5056700;28;20033;-59
2021/08/18 03:11:51;;;;;;;21.02;11.80;;;;;;;;;;5056492;28;20476;-59
2021/08/18 03:14:18;;;;;;;18.73;11.48;;;;;;;;;;5056507;28;20033;-58
2021/08/18 03:16:44;;;;;;;16.63;11.60;;;;;;;;;;5056255;28;20025;-59
2021/08/18 03:19:10;;;;;;;15.35;11.23;;;;;;;;;;5056173;28;20410;-59
2021/08/18 03:21:36;;;;;;;14.27;10.05;;;;;;;;;;5055497;28;20122;-59
2021/08/18 03:24:02;;;;;;;12.45;10.15;;;;;;;;;;5056208;28;20039;-59
2021/08/18 03:26:28;;;;;;;15.52;11.25;;;;;;;;;;5056914;28;20053;-58
2021/08/18 03:28:54;;;;;;;15.38;11.05;;;;;;;;;;5056099;28;20029;-58
2021/08/18 03:31:21;;;;;;;14.80;12.18;;;;;;;;;;5056037;28;20364;-59
2021/08/18 03:33:47;;;;;;;14.93;10.77;;;;;;;;;;5055306;28;20036;-59
2021/08/18 03:36:13;;;;;;;11.93;9.55;;;;;;;;;;5056035;28;20519;-59
2021/08/18 03:38:38;;;;;;;17.27;10.50;;;;;;;;;;5055966;28;20025;-59
2021/08/18 03:41:05;;;;;;;16.30;11.18;;;;;;;;;;5056195;28;20340;-59
2021/08/18 03:43:31;;;;;;;15.93;11.13;;;;;;;;;;5056132;28;20040;-58
2021/08/18 03:45:57;;;;;;;14.85;10.20;;;;;;;;;;5055303;28;20083;-59
2021/08/18 03:48:23;;;;;;;12.75;9.40;;;;;;;;;;5056222;28;20036;-58
2021/08/18 03:50:49;;;;;;;15.10;10.95;;;;;;;;;;5056256;28;20025;-59
2021/08/18 03:53:16;;;;;;;19.90;10.18;;;;;;;;;;5055211;28;20125;-58
2021/08/18 03:55:42;;;;;;;16.50;10.77;;;;;;;;;;5055870;28;20033;-58
2021/08/18 03:58:08;;;;;;;16.27;9.77;;;;;;;;;;5055485;28;20032;-59
2021/08/18 04:00:34;;;;;;;12.98;9.60;;;;;;;;;;5055446;28;20033;-59
2021/08/18 04:03:01;;;;;;;14.57;10.18;;;;;;;;;;5056045;28;20032;-58
2021/08/18 04:05:27;;;;;;;11.63;9.38;;;;;;;;;;5055391;28;20116;-59
2021/08/18 04:07:53;;;;;;;12.30;8.55;;;;;;;;;;5055675;28;20079;-59
2021/08/18 04:10:19;;;;;;;12.93;8.40;;;;;;;;;;5055630;28;20033;-59
2021/08/18 04:12:49;;;;;;;12.57;8.00;;;;;;;;;;5055817;28;20028;-59
2021/08/18 04:15:15;;;;;;;16.50;8.97;;;;;;;;;;5055511;28;20033;-59
2021/08/18 04:17:41;;;;;;;10.40;7.55;;;;;;;;;;5055204;28;20263;-59
2021/08/18 04:20:07;;;;;;;12.82;9.35;;;;;;;;;;5055216;28;20021;-59
2021/08/18 04:22:33;;;;;;;10.68;8.57;;;;;;;;;;5055066;28;20550;-59
2021/08/18 04:25:02;;;;;;;10.23;8.63;;;;;;;;;;5055066;28;20033;-59
2021/08/18 04:27:28;;;;;;;14.20;10.07;;;;;;;;;;5054998;28;20128;-59
2021/08/18 04:29:54;;;;;;;9.60;7.57;;;;;;;;;;5054964;28;20063;-59
2021/08/18 04:32:20;;;;;;;13.70;8.20;;;;;;;;;;5055055;28;20095;-59
2021/08/18 04:34:46;;;;;;;13.35;8.27;;;;;;;;;;5054858;28;20037;-59
2021/08/18 04:37:12;;;;;;;12.63;8.25;;;;;;;;;;5055072;28;20461;-58
2021/08/18 04:39:38;;;;;;;12.65;8.00;;;;;;;;;;5055078;28;20071;-59
2021/08/18 04:42:04;;;;;;;10.57;7.10;;;;;;;;;;5054374;28;20028;-59
2021/08/18 04:44:30;;;;;;;9.32;6.82;;;;;;;;;;5054718;28;20043;-58
2021/08/18 04:46:58;;;;;;;12.27;8.15;;;;;;;;;;5054545;28;20021;-59
2021/08/18 04:49:24;;;;;;;10.70;7.95;;;;;;;;;;5054843;28;20036;-59
2021/08/18 04:51:50;;;;;;;11.63;7.80;;;;;;;;;;5054655;28;20029;-59
2021/08/18 04:54:16;;;;;;;11.25;7.75;;;;;;;;;;5054167;28;20475;-59
2021/08/18 04:56:42;;;;;;;9.77;7.55;;;;;;;;;;5054499;28;20068;-59
2021/08/18 04:59:08;;;;;;;12.57;7.85;;;;;;;;;;5054111;28;20040;-59
2021/08/18 05:01:34;;;;;;;10.80;8.40;;;;;;;;;;5055000;28;20033;-58
2021/08/18 05:04:00;;;;;;;9.52;8.02;;;;;;;;;;5053829;28;20039;-59
2021/08/18 05:06:26;;;;;;;10.50;7.35;;;;;;;;;;5053843;28;20025;-58
2021/08/18 05:08:52;;;;;;;12.52;8.32;;;;;;;;;;5054547;28;20048;-59
2021/08/18 05:11:18;;;;;;;11.00;8.00;;;;;;;;;;5053232;28;20028;-59
2021/08/18 05:13:44;;;;;;;12.50;7.35;;;;;;;;;;5054455;28;20047;-59
2021/08/18 05:16:10;;;;;;;8.48;7.13;;;;;;;;;;5054695;28;20120;-58
2021/08/18 05:18:36;;;;;;;10.75;8.00;;;;;;;;;;5053535;28;20025;-59
2021/08/18 05:21:02;;;;;;;16.15;8.23;;;;;;;;;;5054359;28;20068;-59
2021/08/18 05:23:28;;;;;;;9.75;7.47;;;;;;;;;;5053999;28;20060;-58
2021/08/18 05:25:54;;;;;;;11.82;8.57;;;;;;;;;;5053521;28;20056;-59
2021/08/18 05:28:20;;;;;;;10.45;8.25;;;;;;;;;;5053943;28;20070;-59
2021/08/18 05:30:46;;;;;;;9.95;7.22;;;;;;;;;;5054184;28;20029;-59
2021/08/18 05:33:12;;;;;;;11.75;6.50;;;;;;;;;;5054447;28;20086;-59
2021/08/18 05:35:38;;;;;;;8.80;6.72;;;;;;;;;;5053809;28;20025;-58
2021/08/18 05:38:04;;;;;;;13.07;7.13;;;;;;;;;;5052555;28;20029;-59
2021/08/18 05:40:30;;;;;;;10.10;7.20;;;;;;;;;;5053820;28;20021;-59
2021/08/18 05:42:56;;;;;;;11.77;7.97;;;;;;;;;;5054293;28;20424;-59
2021/08/18 05:45:22;;;;;;;8.43;6.20;;;;;;;;;;5054215;28;20029;-58
2021/08/18 05:47:51;;;;;;;10.05;7.55;;;;;;;;;;5053940;28;20413;-59
2021/08/18 05:50:17;;;;;;;8.35;6.10;;;;;;;;;;5054174;28;20355;-58
2021/08/18 05:52:43;;;;;;;11.20;6.40;;;;;;;;;;5054218;28;20410;-58
2021/08/18 05:55:09;;;;;;;11.82;7.20;;;;;;;;;;5053607;28;20075;-59
2021/08/18 05:57:35;;;;;;;8.48;6.35;;;;;;;;;;5053607;28;20060;-59
2021/08/18 06:00:02;;;;;;;8.73;6.28;;;;;;;;;;5053576;28;20032;-59
2021/08/18 06:02:28;;;;;;;12.40;7.85;;;;;;;;;;5054068;28;20375;-59
2021/08/18 06:04:54;;;;;;;8.63;6.88;;;;;;;;;;5053553;28;20025;-58
2021/08/18 06:07:20;;;;;;;7.07;5.97;;;;;;;;;;5054171;28;20032;-58
2021/08/18 06:09:46;;;;;;;13.38;6.88;;;;;;;;;;5053150;28;20033;-58
2021/08/18 06:12:13;;;;;;;11.35;7.25;;;;;;;;;;5053543;28;20367;-59
2021/08/18 06:14:39;;;;;;;9.18;7.03;;;;;;;;;;5053105;28;20438;-58
2021/08/18 06:17:05;;;;;;;11.30;6.55;;;;;;;;;;5055437;28;20451;-59
2021/08/18 06:19:31;;;;;;;9.77;6.63;;;;;;;;;;5057330;28;20028;-59
2021/08/18 06:22:00;;;;;;;9.75;7.25;;;;;;;;;;5057261;28;20025;-59
2021/08/18 06:24:40;;;;;;;13.52;7.65;;;;;;;;;;5057255;28;20033;-58
2021/08/18 06:27:06;;;;;;;10.80;7.35;;;;;;;;;;5057127;28;20081;-58
2021/08/18 06:29:36;;;;;;;10.00;6.78;;;;;;;;;;5057177;28;20025;-59
2021/08/18 06:32:04;;;;;;;9.02;6.68;;;;;;;;;;5057173;28;20028;-59
2021/08/18 06:34:30;;;;;;;8.52;6.25;;;;;;;;;;5057573;28;20060;-58
2021/08/18 06:37:01;;;;;;;10.35;6.78;;;;;;;;;;5056772;28;20022;-59
2021/08/18 06:39:27;;;;;;;12.25;7.25;;;;;;;;;;5057030;28;20021;-59
2021/08/18 06:41:53;;;;;;;8.32;6.20;;;;;;;;;;5057327;28;20029;-59
2021/08/18 06:44:19;;;;;;;8.13;6.53;;;;;;;;;;5056935;28;20040;-59
2021/08/18 06:46:45;;;;;;;7.93;6.07;;;;;;;;;;5057522;28;20448;-59
2021/08/18 06:49:11;;;;;;;9.75;6.53;;;;;;;;;;5056532;28;20048;-59
2021/08/18 06:51:37;;;;;;;8.93;6.72;;;;;;;;;;5056973;28;20021;-59
2021/08/18 06:54:03;;;;;;;9.75;6.93;;;;;;;;;;5056490;28;20380;-58
2021/08/18 06:56:29;;;;;;;9.10;6.88;;;;;;;;;;5057111;28;20439;-59
2021/08/18 06:58:55;;;;;;;9.82;6.95;;;;;;;;;;5056824;28;20040;-59
2021/08/18 07:01:21;;;;;;;8.35;6.93;;;;;;;;;;5056603;28;20031;-59
2021/08/18 07:03:47;;;;;;;12.98;5.75;;;;;;;;;;5056980;28;20033;-59
2021/08/18 07:06:13;;;;;;;9.35;5.70;;;;;;;;;;5056285;28;20021;-59
2021/08/18 07:08:39;;;;;;;8.95;6.32;;;;;;;;;;5056201;28;20498;-59
2021/08/18 07:11:05;;;;;;;11.45;5.45;;;;;;;;;;5056502;28;20443;-59
2021/08/18 07:13:31;;;;;;;11.60;5.93;;;;;;;;;;5057156;28;20041;-59
2021/08/18 07:15:57;;;;;;;10.63;6.70;;;;;;;;;;5056339;28;20025;-59
2021/08/18 07:18:23;;;;;;;10.00;7.13;;;;;;;;;;5055928;28;20025;-58
2021/08/18 07:20:50;;;;;;;8.65;6.00;;;;;;;;;;5056188;28;20029;-59
2021/08/18 07:23:16;;;;;;;8.77;5.47;;;;;;;;;;5056914;28;20040;-59
2021/08/18 07:25:44;;;;;;;7.13;4.57;;;;;;;;;;5056130;28;20127;-57
2021/08/18 07:28:10;;;;;;;6.63;4.47;;;;;;;;;;5054905;28;20029;-57
2021/08/18 07:30:36;;;;;;;6.03;4.20;;;;;;;;;;5056092;28;20036;-57
2021/08/18 07:33:02;;;;;;;7.32;5.20;;;;;;;;;;5056303;28;20092;-57
2021/08/18 07:35:30;;;;;;;7.18;4.78;;;;;;;;;;5056462;28;20119;-57
2021/08/18 07:37:56;;;;;;;5.35;3.97;;;;;;;;;;5055849;28;20040;-57
2021/08/18 07:40:23;;;;;;;10.73;3.92;;;;;;;;;;5056628;28;20025;-57
2021/08/18 07:42:49;;;;;;;5.68;4.15;;;;;;;;;;5055889;28;20060;-57
2021/08/18 07:45:15;;;;;;;5.20;3.97;;;;;;;;;;5055860;28;20033;-57
2021/08/18 07:47:41;;;;;;;6.38;3.65;;;;;;;;;;5054717;28;20051;-57
2021/08/18 07:50:07;;;;;;;7.63;3.22;;;;;;;;;;5055576;28;20418;-57
2021/08/18 07:52:33;;;;;;;5.78;3.58;;;;;;;;;;5055693;28;20028;-57
2021/08/18 07:54:59;;;;;;;3.90;2.55;;;;;;;;;;5055370;28;20029;-58
2021/08/18 07:57:25;;;;;;;5.35;2.70;;;;;;;;;;5055180;28;20108;-58
2021/08/18 07:59:52;;;;;;;4.53;3.08;;;;;;;;;;5055467;28;20108;-58
2021/08/18 08:02:19;;;;;;;6.65;3.03;;;;;;;;;;5055721;28;20086;-58
2021/08/18 08:04:45;;;;;;;7.45;2.65;;;;;;;;;;5055350;28;20467;-58
2021/08/18 08:07:14;;;;;;;4.75;2.80;;;;;;;;;;5056075;28;20167;-58
2021/08/18 08:09:40;;;;;;;4.55;3.13;;;;;;;;;;5055263;28;20041;-58
2021/08/18 08:12:07;;;;;;;5.90;3.85;;;;;;;;;;5055582;28;20150;-58
2021/08/18 08:14:33;;;;;;;4.13;2.58;;;;;;;;;;5055065;28;20488;-58
2021/08/18 08:17:01;;;;;;;4.50;3.22;;;;;;;;;;5055964;28;20052;-58
2021/08/18 08:19:27;;;;;;;4.15;2.60;;;;;;;;;;5055476;28;20028;-58
2021/08/18 08:21:53;;;;;;;2.72;1.98;;;;;;;;;;5054726;28;20025;-58
2021/08/18 08:24:19;;;;;;;3.70;2.30;;;;;;;;;;5055018;28;20033;-58
2021/08/18 08:26:45;;;;;;;5.90;3.22;;;;;;;;;;5054637;28;20047;-58
2021/08/18 08:29:11;;;;;;;3.90;2.60;;;;;;;;;;5053738;28;20112;-58
2021/08/18 08:31:37;;;;;;;2.80;2.03;;;;;;;;;;5055225;28;20071;-58
2021/08/18 08:34:03;;;;;;;3.28;2.22;;;;;;;;;;5054723;28;20100;-58
2021/08/18 08:36:29;;;;;;;3.50;2.05;;;;;;;;;;5054635;28;20021;-58
2021/08/18 08:38:55;;;;;;;3.72;2.30;;;;;;;;;;5054797;28;20083;-58
2021/08/18 08:41:21;;;;;;;5.38;2.22;;;;;;;;;;5054756;28;20048;-58
2021/08/18 08:43:47;;;;;;;8.20;1.90;;;;;;;;;;5055001;28;20067;-58
2021/08/18 08:46:13;;;;;;;5.05;2.08;;;;;;;;;;5054587;28;20032;-58
2021/08/18 08:48:40;;;;;;;3.10;1.75;;;;;;;;;;5055004;28;20029;-58
2021/08/18 08:51:07;;;;;;;3.03;1.55;;;;;;;;;;5055224;28;20132;-57
2021/08/18 08:53:34;;;;;;;3.65;1.40;;;;;;;;;;5054874;28;20032;-57
2021/08/18 08:56:00;;;;;;;3.90;2.03;;;;;;;;;;5054511;28;20029;-57
2021/08/18 08:58:25;;;;;;;3.03;1.80;;;;;;;;;;5054364;28;20036;-57
2021/08/18 09:00:52;;;;;;;3.28;1.70;;;;;;;;;;5054374;28;20047;-57
2021/08/18 09:03:25;;;;;;;3.22;1.50;;;;;;;;;;5054056;28;20550;-57
2021/08/18 09:05:52;;;;;;;3.78;1.40;;;;;;;;;;5054508;28;20471;-58
2021/08/18 09:08:22;;;;;;;4.20;1.58;;;;;;;;;;5054764;28;20074;-57
2021/08/18 09:11:08;;;;;;;2.50;1.55;;;;;;;;;;5054094;28;20366;-57
2021/08/18 09:13:53;;;;;;;2.67;1.38;;;;;;;;;;5054347;28;20040;-57
2021/08/18 09:16:30;;;;;;;2.50;1.33;;;;;;;;;;5054545;28;20021;-58
2021/08/18 09:18:56;;;;;;;4.97;1.75;;;;;;;;;;5053237;28;20029;-57
2021/08/18 09:21:25;;;;;;;3.75;1.60;;;;;;;;;;5052629;28;20025;-57
2021/08/18 09:23:51;;;;;;;1.45;0.95;;;;;;;;;;5054218;28;20378;-57
2021/08/18 09:26:21;;;;;;;2.13;0.80;;;;;;;;;;5053973;28;20053;-57
2021/08/18 09:28:49;;;;;;;1.98;0.68;;;;;;;;;;5053887;28;20116;-57
2021/08/18 09:31:24;;;;;;;0.43;0.25;;;;;;;;;;5053862;28;20073;-57
2021/08/18 09:33:57;;;;;;;0.73;0.30;;;;;;;;;;5054406;28;20111;-57
2021/08/18 09:36:25;;;;;;;1.02;0.38;;;;;;;;;;5053914;28;20035;-57
2021/08/18 09:38:51;;;;;;;0.57;0.30;;;;;;;;;;5053779;28;20017;-57
2021/08/18 09:41:22;;;;;;;1.30;0.50;;;;;;;;;;5053773;28;20367;-57
2021/08/18 09:43:48;;;;;;;0.95;0.45;;;;;;;;;;5054122;28;20143;-57
2021/08/18 09:46:14;;;;;;;1.45;0.40;;;;;;;;;;5053408;28;20037;-58
2021/08/18 09:48:44;;;;;;;0.77;0.32;;;;;;;;;;5053681;28;20036;-57
2021/08/18 09:51:11;;;;;;;1.23;0.45;;;;;;;;;;5052745;28;20029;-57
2021/08/18 09:53:39;;;;;;;0.93;0.30;;;;;;;;;;5054191;28;20029;-58
2021/08/18 09:56:12;;;;;;;0.80;0.40;;;;;;;;;;5054111;28;20036;-57
2021/08/18 09:58:42;;;;;;;0.60;0.32;;;;;;;;;;5053647;28;20029;-57
2021/08/18 10:01:10;;;;;;;1.17;0.40;;;;;;;;;;5053544;28;20356;-57
2021/08/18 10:03:36;;;;;;;0.95;0.43;;;;;;;;;;5053806;28;20120;-57
2021/08/18 10:06:03;;;;;;;0.80;0.30;;;;;;;;;;5053558;28;20025;-57
2021/08/18 10:08:30;;;;;;;1.52;0.60;;;;;;;;;;5053556;28;20028;-57
2021/08/18 10:10:56;;;;;;;1.35;0.40;;;;;;;;;;5053472;28;20025;-57
2021/08/18 10:13:22;;;;;;;1.00;0.30;;;;;;;;;;5053765;28;20065;-58
2021/08/18 10:15:49;;;;;;;1.55;0.43;;;;;;;;;;5053622;28;20059;-57
2021/08/18 10:18:41;;;;;;;1.27;0.40;;;;;;;;;;5053609;28;20033;-57
2021/08/18 10:21:11;;;;;;;1.20;0.45;;;;;;;;;;5052453;28;20039;-57
2021/08/18 10:23:46;;;;;;;1.58;0.75;;;;;;;;;;5053280;28;20040;-57
2021/08/18 10:26:35;;;;;;;1.90;0.75;;;;;;;;;;5053321;28;20049;-57
2021/08/18 10:29:04;;;;;;;0.75;0.40;;;;;;;;;;5053797;28;20389;-57
2021/08/18 10:31:44;;;;;;;0.85;0.40;;;;;;;;;;5054083;28;20060;-57
2021/08/18 10:34:11;;;;;;;0.50;0.25;;;;;;;;;;5052916;28;20029;-57
2021/08/18 10:36:48;;;;;;;0.43;0.17;;;;;;;;;;5053295;28;20509;-57
2021/08/18 10:39:20;;;;;;;0.80;0.40;;;;;;;;;;5054115;28;20096;-57
2021/08/18 10:42:05;;;;;;;0.68;0.30;;;;;;;;;;5053048;28;20100;-58
2021/08/18 10:44:34;;;;;;;1.10;0.50;;;;;;;;;;5053974;28;20025;-57
2021/08/18 10:47:22;;;;;;;0.95;0.38;;;;;;;;;;5053003;28;20040;-57
2021/08/18 10:49:52;;;;;;;3.95;0.50;;;;;;;;;;5053092;28;20029;-57
2021/08/18 10:52:30;;;;;;;0.93;0.40;;;;;;;;;;5053237;28;20032;-57
2021/08/18 10:55:12;;;;;;;1.00;0.40;;;;;;;;;;5053071;28;20025;-57
2021/08/18 10:57:38;;;;;;;1.23;0.40;;;;;;;;;;5053715;28;20108;-57
2021/08/18 11:00:11;;;;;;;2.00;0.60;;;;;;;;;;5053025;28;20059;-58
2021/08/18 11:02:57;;;;;;;0.50;0.30;;;;;;;;;;5054622;28;20083;-58
2021/08/18 11:05:24;;;;;;;0.52;0.28;;;;;;;;;;5056934;28;20021;-57
2021/08/18 11:08:02;;;;;;;0.93;0.45;;;;;;;;;;5057164;28;20029;-57
2021/08/18 11:10:32;;;;;;;0.85;0.40;;;;;;;;;;5056836;28;20461;-58
2021/08/18 11:12:58;;;;;;;1.30;0.40;;;;;;;;;;5055568;28;20406;-57
2021/08/18 11:15:24;;;;;;;0.90;0.47;;;;;;;;;;5056404;28;20029;-57
2021/08/18 11:17:54;;;;;;;0.70;0.35;;;;;;;;;;5056633;28;20470;-57
2021/08/18 11:20:30;;;;;;;1.00;0.50;;;;;;;;;;5056316;28;20115;-57
2021/08/18 11:22:57;;;;;;;0.88;0.50;;;;;;;;;;5056533;28;20107;-58
2021/08/18 11:25:24;;;;;;;1.75;0.90;;;;;;;;;;5056694;28;20120;-57
2021/08/18 11:27:53;;;;;;;0.88;0.45;;;;;;;;;;5056554;28;20033;-57
2021/08/18 11:30:32;;;;;;;1.10;0.70;;;;;;;;;;5056185;28;20032;-57
2021/08/18 11:33:19;;;;;;;2.15;0.75;;;;;;;;;;5056744;28;20240;-57
2021/08/18 11:35:45;;;;;;;1.77;1.00;;;;;;;;;;5056033;28;20532;-58
2021/08/18 11:38:11;;;;;;;1.42;0.70;;;;;;;;;;5055961;28;20029;-57
2021/08/18 11:40:39;;;;;;;1.48;0.70;;;;;;;;;;5055952;28;20033;-58
2021/08/18 11:43:06;;;;;;;4.38;0.93;;;;;;;;;;5056461;28;20025;-58
2021/08/18 11:45:34;;;;;;;1.48;0.60;;;;;;;;;;5056122;28;20025;-58
2021/08/18 11:48:22;;;;;;;2.72;1.10;;;;;;;;;;5055413;28;20501;-57
2021/08/18 11:50:52;;;;;;;1.83;0.98;;;;;;;;;;5056365;28;20367;-57
2021/08/18 11:53:19;;;;;;;1.50;0.82;;;;;;;;;;5056246;28;20049;-57
2021/08/18 11:55:45;;;;;;;1.65;1.00;;;;;;;;;;5056139;28;20112;-57
2021/08/18 11:58:11;;;;;;;2.05;1.23;;;;;;;;;;5055536;28;20032;-57
2021/08/18 12:00:42;;;;;;;1.52;0.88;;;;;;;;;;5055398;28;20025;-57
2021/08/18 12:03:08;;;;;;;;;;;;;;;;;;5056077;28;20025;-57
2021/08/18 12:05:38;;;;;;;1.63;0.73;;;;;;;;;;5055402;28;19905;-57
2021/08/18 12:08:05;;;;;;;1.98;1.00;;;;;;;;;;5055927;28;20033;-58
2021/08/18 12:10:37;;;;;;;2.00;1.00;;;;;;;;;;5055499;28;20036;-57
2021/08/18 12:13:05;;;;;;;2.40;1.02;;;;;;;;;;5055646;28;20027;-58
2021/08/18 12:15:35;;;;;;;1.92;1.13;;;;;;;;;;5054879;28;20522;-58
2021/08/18 12:18:01;;;;;;;3.55;1.73;;;;;;;;;;5055173;28;20378;-58
2021/08/18 12:20:33;;;;;;;1.58;1.02;;;;;;;;;;5055666;28;20364;-57
2021/08/18 12:22:59;;;;;;;1.80;0.95;;;;;;;;;;5055358;28;20021;-58
2021/08/18 12:25:29;;;;;;;2.22;1.23;;;;;;;;;;5054818;28;20053;-58
2021/08/18 12:28:12;;;;;;;4.90;0.98;;;;;;;;;;5054364;28;20025;-57
2021/08/18 12:30:57;;;;;;;1.33;0.70;;;;;;;;;;5054982;28;20033;-58
2021/08/18 12:33:23;;;;;;;1.67;0.98;;;;;;;;;;5055461;28;20429;-58
2021/08/18 12:36:11;;;;;;;1.40;0.90;;;;;;;;;;5054501;28;20029;-58
2021/08/18 12:38:37;;;;;;;1.88;0.98;;;;;;;;;;5055360;28;20096;-58
2021/08/18 12:41:14;;;;;;;2.47;1.15;;;;;;;;;;5055107;28;20021;-58
2021/08/18 12:43:40;;;;;;;1.35;0.90;;;;;;;;;;5055061;28;20064;-58
2021/08/18 12:46:06;;;;;;;1.13;0.60;;;;;;;;;;5055018;28;20021;-57
2021/08/18 12:48:32;;;;;;;1.75;0.95;;;;;;;;;;5055079;28;20021;-58
2021/08/18 12:51:03;;;;;;;2.22;1.20;;;;;;;;;;5055121;28;20025;-58
2021/08/18 12:53:29;;;;;;;2.75;1.00;;;;;;;;;;5054545;28;20117;-58
2021/08/18 12:55:55;;;;;;;1.67;0.88;;;;;;;;;;5054599;28;20040;-58
2021/08/18 12:58:22;;;;;;;2.35;1.17;;;;;;;;;;5054487;28;20083;-58
2021/08/18 13:00:48;;;;;;;1.33;0.63;;;;;;;;;;5054902;28;20108;-58
2021/08/18 13:03:14;;;;;;;1.95;0.77;;;;;;;;;;5055002;28;20056;-57
2021/08/18 13:05:40;;;;;;;1.85;0.95;;;;;;;;;;5054296;28;20070;-58
2021/08/18 13:08:06;;;;;;;0.88;0.47;;;;;;;;;;5054331;28;20111;-58
2021/08/18 13:10:33;;;;;;;0.77;0.40;;;;;;;;;;5054542;28;20029;-58
2021/08/18 13:13:02;;;;;;;1.80;0.80;;;;;;;;;;5054413;28;20025;-58
2021/08/18 13:15:28;;;;;;;1.13;0.50;;;;;;;;;;5054142;28;20052;-58
2021/08/18 13:17:54;;;;;;;0.63;0.28;;;;;;;;;;5054982;28;20138;-58
2021/08/18 13:20:20;;;;;;;2.08;0.52;;;;;;;;;;5054146;28;20560;-58
2021/08/18 13:22:46;;;;;;;0.22;0.13;;;;;;;;;;5054622;28;20035;-58
2021/08/18 13:25:12;;;;;;;0.35;0.10;;;;;;;;;;5053837;28;20056;-58
2021/08/18 13:27:38;;;;;;;1.35;0.52;;;;;;;;;;5054514;28;20424;-58
2021/08/18 13:30:07;;;;;;;0.52;0.25;;;;;;;;;;5053997;28;20100;-58
2021/08/18 13:32:33;;;;;;;0.95;0.40;;;;;;;;;;5054792;28;20086;-58
2021/08/18 13:34:59;;;;;;;1.08;0.50;;;;;;;;;;5054323;28;20367;-58
2021/08/18 13:37:25;;;;;;;0.77;0.43;;;;;;;;;;5053953;28;20025;-58
2021/08/18 13:39:51;;;;;;;0.57;0.28;;;;;;;;;;5053853;28;20032;-57
2021/08/18 13:42:17;;;;;;;0.60;0.20;;;;;;;;;;5054042;28;20525;-58
2021/08/18 13:44:43;;;;;;;0.65;0.30;;;;;;;;;;5053820;28;20037;-58
2021/08/18 13:47:09;;;;;;;0.60;0.30;;;;;;;;;;5053750;28;20059;-58
2021/08/18 13:49:35;;;;;;;0.82;0.45;;;;;;;;;;5053807;28;20032;-58
2021/08/18 13:52:01;;;;;;;0.85;0.40;;;;;;;;;;5053802;28;20017;-58
2021/08/18 13:54:28;;;;;;;1.55;0.88;;;;;;;;;;5053593;28;20028;-58
2021/08/18 13:56:54;;;;;;;1.27;0.63;;;;;;;;;;5053663;28;20033;-58
2021/08/18 13:59:23;;;;;;;0.77;0.40;;;;;;;;;;5053475;28;20036;-58
2021/08/18 14:01:49;;;;;;;2.05;0.57;;;;;;;;;;5053940;28;20021;-58
2021/08/18 14:04:15;;;;;;;1.38;0.60;;;;;;;;;;5053629;28;20118;-58
2021/08/18 14:06:41;;;;;;;0.77;0.30;;;;;;;;;;5052452;28;20417;-58
2021/08/18 14:09:08;;;;;;;0.95;0.50;;;;;;;;;;5054036;28;20021;-58
2021/08/18 14:11:34;;;;;;;1.85;0.77;;;;;;;;;;5053791;28;20045;-58
2021/08/18 14:14:00;;;;;;;1.17;0.50;;;;;;;;;;5053305;28;20041;-58
2021/08/18 14:16:26;;;;;;;1.33;0.63;;;;;;;;;;5053725;28;20028;-58
2021/08/18 14:18:52;;;;;;;1.65;0.73;;;;;;;;;;5054171;28;20032;-58
2021/08/18 14:21:18;;;;;;;0.95;0.60;;;;;;;;;;5053381;28;20020;-58
2021/08/18 14:23:44;;;;;;;1.70;0.68;;;;;;;;;;5053030;28;20021;-58
2021/08/18 14:26:10;;;;;;;2.03;0.93;;;;;;;;;;5053301;28;20056;-58
2021/08/18 14:28:37;;;;;;;1.75;0.80;;;;;;;;;;5053332;28;20367;-58
2021/08/18 14:31:03;;;;;;;1.85;0.65;;;;;;;;;;5053300;28;20525;-58
2021/08/18 14:33:30;;;;;;;1.73;0.95;;;;;;;;;;5052615;28;20029;-58
2021/08/18 14:35:56;;;;;;;1.80;0.70;;;;;;;;;;5053443;28;20104;-58
2021/08/18 14:38:22;;;;;;;1.73;0.77;;;;;;;;;;5056376;28;20028;-58